createdAt,value
2022-08-04T00:02:09.761Z,3.80
2022-08-04T00:07:44.240Z,3.80
2022-08-04T00:12:51.533Z,4.30
2022-08-04T00:18:02.515Z,3.77
2022-08-04T00:23:10.938Z,4.10
2022-08-04T00:28:16.658Z,3.50
2022-08-04T00:33:22.114Z,4.10
2022-08-04T00:38:30.351Z,3.90
2022-08-04T00:43:37.111Z,4.17
2022-08-04T00:49:05.835Z,3.60
2022-08-04T00:54:19.172Z,3.87
2022-08-04T00:59:43.321Z,4.73
2022-08-04T01:05:00.405Z,3.83
2022-08-04T01:10:17.791Z,4.10
2022-08-04T01:15:31.832Z,3.60
2022-08-04T01:21:13.246Z,3.90
2022-08-04T01:26:57.457Z,4.00
2022-08-04T01:32:07.896Z,3.87
2022-08-04T01:37:28.692Z,4.10
2022-08-04T01:42:35.955Z,4.10
2022-08-04T01:47:46.705Z,3.60
2022-08-04T01:52:55.201Z,3.70
2022-08-04T01:58:03.219Z,3.50
2022-08-04T02:03:11.567Z,4.33
2022-08-04T02:08:24.877Z,3.77
2022-08-04T02:13:41.749Z,4.10
2022-08-04T02:19:00.851Z,3.70
2022-08-04T02:24:10.937Z,3.30
2022-08-04T02:29:20.748Z,3.90
2022-08-04T02:34:32.967Z,4.03
2022-08-04T02:39:42.440Z,3.90
2022-08-04T02:44:54.386Z,3.87
2022-08-04T02:50:04.200Z,4.00
2022-08-04T02:55:12.550Z,3.70
2022-08-04T03:00:20.213Z,3.77
2022-08-04T03:05:49.960Z,3.57
2022-08-04T03:11:16.748Z,3.60
2022-08-04T03:16:46.319Z,3.23
2022-08-04T03:22:24.747Z,3.60
2022-08-04T03:28:03.473Z,3.40
2022-08-04T03:33:39.095Z,3.30
2022-08-04T03:39:28.741Z,3.93
2022-08-04T03:45:23.537Z,3.23
2022-08-04T03:51:35.429Z,3.57
2022-08-04T03:56:56.064Z,3.20
2022-08-04T04:02:39.392Z,3.70
2022-08-04T04:08:04.361Z,3.17
2022-08-04T04:13:32.886Z,3.60
2022-08-04T04:19:02.649Z,3.13
2022-08-04T04:24:48.246Z,3.00
2022-08-04T04:30:06.372Z,3.00
2022-08-04T04:35:25.627Z,3.13
2022-08-04T04:40:51.830Z,3.60
2022-08-04T04:46:03.358Z,3.63
2022-08-04T04:51:22.019Z,3.37
2022-08-04T04:56:33.492Z,4.20
2022-08-04T05:02:14.490Z,3.97
2022-08-04T05:07:45.747Z,3.33
2022-08-04T05:14:35.309Z,3.60
2022-08-04T05:18:42.246Z,3.70
2022-08-04T05:23:54.403Z,3.50
2022-08-04T05:29:09.523Z,3.72
2022-08-04T05:34:18.752Z,3.30
2022-08-04T05:39:31.035Z,3.38
2022-08-04T05:44:41.943Z,3.30
2022-08-04T05:49:55.618Z,3.83
2022-08-04T05:55:08.306Z,3.58
2022-08-04T06:00:39.737Z,3.25
2022-08-04T06:05:48.588Z,3.05
2022-08-04T06:10:56.600Z,3.30
2022-08-04T06:16:05.564Z,3.17
2022-08-04T06:21:16.360Z,2.72
2022-08-04T06:26:22.793Z,2.80
2022-08-04T06:32:28.711Z,2.70
2022-08-04T06:37:43.113Z,2.53
2022-08-04T06:42:41.685Z,2.97
2022-08-04T06:47:51.584Z,2.42
2022-08-04T06:52:57.979Z,2.92
2022-08-04T06:58:05.176Z,2.38
2022-08-04T07:03:14.489Z,2.88
2022-08-04T07:08:19.867Z,2.33
2022-08-04T07:13:26.538Z,2.10
2022-08-04T07:18:34.464Z,2.40
2022-08-04T07:23:42.802Z,2.50
2022-08-04T07:28:49.582Z,2.28
2022-08-04T07:34:20.617Z,2.47
2022-08-04T07:39:28.743Z,2.47
2022-08-04T07:44:35.108Z,2.63
2022-08-04T07:49:54.764Z,2.35
2022-08-04T07:55:04.045Z,2.50
2022-08-04T08:00:11.008Z,2.75
2022-08-04T08:05:22.339Z,2.55
2022-08-04T08:10:27.889Z,2.58
2022-08-04T08:15:34.142Z,2.28
2022-08-04T08:20:42.483Z,2.63
2022-08-04T08:25:48.085Z,2.40
2022-08-04T08:30:53.028Z,2.20
2022-08-04T08:36:07.583Z,2.83
2022-08-04T08:41:43.188Z,2.10
2022-08-04T08:47:05.099Z,1.98
2022-08-04T08:52:56.626Z,1.80
2022-08-04T08:58:20.241Z,1.98
2022-08-04T09:03:49.430Z,2.10
2022-08-04T09:09:13.939Z,1.73
2022-08-04T09:14:25.505Z,1.98
2022-08-04T09:19:38.842Z,1.75
2022-08-04T09:24:53.899Z,1.95
2022-08-04T09:30:07.732Z,1.40
2022-08-04T09:35:26.327Z,2.10
2022-08-04T09:40:55.453Z,1.80
2022-08-04T09:46:09.461Z,1.70
2022-08-04T09:51:56.859Z,2.13
2022-08-04T09:57:17.198Z,1.80
2022-08-04T10:02:27.240Z,1.50
2022-08-04T10:08:15.112Z,1.40
2022-08-04T10:13:27.960Z,1.60
2022-08-04T10:18:47.379Z,1.70
2022-08-04T10:24:09.250Z,1.63
2022-08-04T10:29:19.459Z,1.60
2022-08-04T10:34:29.546Z,2.00
2022-08-04T10:40:03.885Z,1.42
2022-08-04T10:45:20.032Z,1.60
2022-08-04T10:50:28.786Z,1.60
2022-08-04T10:56:06.922Z,1.85
2022-08-04T11:02:00.034Z,1.50
2022-08-04T11:06:41.427Z,1.55
2022-08-04T11:12:00.447Z,1.77
2022-08-04T11:17:18.514Z,1.88
2022-08-04T11:22:28.772Z,1.55
2022-08-04T11:27:53.075Z,1.77
2022-08-04T11:33:12.382Z,1.73
2022-08-04T11:38:29.158Z,1.55
2022-08-04T11:43:56.526Z,2.20
2022-08-04T11:49:18.387Z,1.70
2022-08-04T11:54:24.583Z,1.60
2022-08-04T11:59:32.104Z,2.17
2022-08-04T12:04:49.951Z,2.00
2022-08-04T12:10:07.779Z,1.60
2022-08-04T12:15:22.644Z,1.90
2022-08-04T12:20:38.348Z,1.67
2022-08-04T12:25:51.211Z,1.75
2022-08-04T12:31:08.425Z,1.75
2022-08-04T12:36:23.543Z,1.73
2022-08-04T12:41:35.996Z,1.85
2022-08-04T12:46:44.626Z,1.75
2022-08-04T12:52:07.980Z,1.85
2022-08-04T12:57:16.223Z,1.90
2022-08-04T13:02:29.097Z,1.80
2022-08-04T13:07:45.585Z,2.05
2022-08-04T13:13:02.699Z,1.55
2022-08-04T13:18:15.482Z,1.90
2022-08-04T13:23:24.464Z,2.22
2022-08-04T13:28:31.041Z,1.95
2022-08-04T13:33:39.176Z,1.95
2022-08-04T13:38:53.452Z,2.67
2022-08-04T13:44:17.445Z,2.03
2022-08-04T13:49:42.810Z,1.90
2022-08-04T13:54:54.917Z,1.80
2022-08-04T14:00:04.541Z,1.80
2022-08-04T14:05:19.052Z,2.00
2022-08-04T14:10:27.253Z,2.10
2022-08-04T14:15:54.783Z,1.77
2022-08-04T14:21:10.887Z,2.00
2022-08-04T14:26:30.211Z,1.92
2022-08-04T14:31:55.261Z,2.10
2022-08-04T14:37:17.721Z,1.73
2022-08-04T14:42:43.657Z,1.90
2022-08-04T14:47:53.339Z,2.20
2022-08-04T14:53:06.068Z,2.03
2022-08-04T14:58:35.798Z,2.03
2022-08-04T15:03:49.981Z,2.03
2022-08-04T15:08:59.677Z,2.08
2022-08-04T15:14:08.749Z,2.75
2022-08-04T15:19:34.491Z,2.40
2022-08-04T15:24:39.419Z,2.50
2022-08-04T15:29:59.260Z,2.15
2022-08-04T15:35:07.046Z,2.10
2022-08-04T15:40:16.395Z,2.42
2022-08-04T15:46:36.981Z,3.60
2022-08-04T15:51:15.172Z,2.38
2022-08-04T15:56:48.542Z,2.10
2022-08-04T16:02:38.690Z,2.30
2022-08-04T16:07:57.451Z,2.88
2022-08-04T16:13:08.449Z,2.40
2022-08-04T16:18:26.207Z,2.10
2022-08-04T16:24:09.681Z,2.00
2022-08-04T16:29:38.125Z,1.98
2022-08-04T16:34:54.317Z,1.80
2022-08-04T16:40:36.983Z,1.90
2022-08-04T16:46:04.715Z,1.80
2022-08-04T16:51:14.698Z,1.98
2022-08-04T16:56:20.762Z,1.92
2022-08-04T17:01:33.496Z,1.70
2022-08-04T17:06:46.448Z,2.00
2022-08-04T17:11:51.525Z,2.05
2022-08-04T17:16:58.908Z,1.85
2022-08-04T17:22:10.428Z,2.40
2022-08-04T17:28:18.962Z,1.80
2022-08-04T17:32:40.765Z,2.17
2022-08-04T17:37:53.065Z,1.92
2022-08-04T17:44:01.069Z,1.98
2022-08-04T17:48:31.163Z,1.77
2022-08-04T17:54:02.618Z,1.80
2022-08-04T17:59:48.247Z,1.85
2022-08-04T18:05:05.996Z,1.75
2022-08-04T18:10:34.817Z,1.65
2022-08-04T18:15:46.926Z,1.77
2022-08-04T18:20:52.274Z,2.10
2022-08-04T18:26:02.207Z,1.90
2022-08-04T18:31:09.647Z,1.85
2022-08-04T18:36:32.890Z,1.90
2022-08-04T18:42:03.852Z,1.70
2022-08-04T18:47:28.986Z,1.92
2022-08-04T18:52:33.308Z,2.13
2022-08-04T18:58:00.791Z,1.88
2022-08-04T19:03:08.088Z,1.83
2022-08-04T19:08:32.875Z,1.92
2022-08-04T19:13:42.857Z,1.80
2022-08-04T19:19:00.544Z,1.90
2022-08-04T19:24:30.267Z,2.30
2022-08-04T19:35:01.030Z,1.92
2022-08-04T19:40:07.247Z,2.13
2022-08-04T19:45:16.121Z,2.47
2022-08-04T19:50:23.925Z,2.78
2022-08-04T19:55:36.715Z,2.15
2022-08-04T20:00:51.346Z,2.40
2022-08-04T20:05:57.552Z,2.72
2022-08-04T20:11:04.413Z,2.50
2022-08-04T20:16:28.687Z,2.38
2022-08-04T20:21:53.780Z,2.60
2022-08-04T20:27:00.717Z,2.67
2022-08-04T20:32:15.572Z,2.75
2022-08-04T20:37:23.217Z,3.58
2022-08-04T20:42:34.252Z,3.50
2022-08-04T20:47:42.004Z,3.67
2022-08-04T20:52:48.083Z,2.70
2022-08-04T20:57:58.888Z,2.63
2022-08-04T21:03:11.403Z,2.67
2022-08-04T21:08:16.354Z,3.15
2022-08-04T21:13:21.280Z,2.58
2022-08-04T21:18:29.865Z,3.33
2022-08-04T21:23:42.041Z,2.72
2022-08-04T21:28:46.945Z,2.60
2022-08-04T21:33:54.724Z,2.60
2022-08-04T21:38:59.714Z,2.85
2022-08-04T21:44:05.179Z,2.50
2022-08-04T21:49:12.754Z,2.42
2022-08-04T21:54:17.968Z,2.55
2022-08-04T21:59:30.449Z,2.45
2022-08-04T22:04:38.409Z,2.80
2022-08-04T22:10:00.023Z,3.08
2022-08-04T22:16:02.727Z,3.15
2022-08-04T22:20:35.327Z,3.28
2022-08-04T22:25:40.280Z,2.90
2022-08-04T22:30:51.955Z,3.13
2022-08-04T22:35:59.729Z,2.72
2022-08-04T22:41:08.424Z,3.00
2022-08-04T22:46:22.089Z,2.50
2022-08-04T22:51:29.554Z,2.95
2022-08-04T22:56:38.378Z,3.10
2022-08-04T23:02:00.495Z,3.05
2022-08-04T23:07:09.793Z,3.25
2022-08-04T23:12:30.441Z,2.78
2022-08-04T23:17:43.825Z,3.15
2022-08-04T23:22:55.932Z,3.17
2022-08-04T23:28:00.955Z,2.88
2022-08-04T23:33:08.998Z,3.50
2022-08-04T23:38:30.443Z,3.35
2022-08-04T23:43:38.540Z,3.42
2022-08-04T23:48:54.855Z,3.20
2022-08-04T23:54:04.782Z,3.40
2022-08-04T23:59:17.854Z,3.55
